Time;durP1;ratioP1;P1;durP2;ratioP2;P2;SDS_P1;SDS_P2;PMS_P1;PMS_P2;Temp;Humidity;BMP_temperature;BMP_pressure;BME280_temperature;BME280_humidity;BME280_pressure;Samples;Min_cycle;Max_cycle;Signal;HPM_P1;HPM_P2
2024/03/25 00:01:15;;;;;;;;;;;22.20;36.70;;;;;;5072983;28;19931;-60
2024/03/25 00:03:40;;;;;;;;;;;22.20;36.70;;;;;;5073208;28;19924;-60
2024/03/25 00:06:06;;;;;;;;;;;22.10;36.70;;;;;;5073219;28;20062;-60
2024/03/25 00:08:32;;;;;;;;;;;22.10;37.30;;;;;;5071928;28;19928;-60
2024/03/25 00:10:58;;;;;;;;;;;22.10;36.80;;;;;;5073124;28;19925;-60
2024/03/25 00:13:24;;;;;;;;;;;22.20;37.10;;;;;;5072875;28;20427;-60
2024/03/25 00:15:50;;;;;;;;;;;22.10;36.80;;;;;;5073198;28;20332;-60
2024/03/25 00:18:16;;;;;;;;;;;22.10;36.80;;;;;;5073093;28;20244;-59
2024/03/25 00:20:42;;;;;;;;;;;22.10;36.80;;;;;;5072446;28;19933;-60
2024/03/25 00:23:08;;;;;;;;;;;22.10;36.80;;;;;;5072703;28;19924;-60
2024/03/25 00:25:34;;;;;;;;;;;22.10;36.80;;;;;;5056274;28;19924;-60
2024/03/25 00:28:00;;;;;;;;;;;22.10;36.80;;;;;;5072930;28;20377;-60
2024/03/25 00:30:25;;;;;;;;;;;22.10;36.90;;;;;;5072474;28;19925;-60
2024/03/25 00:32:51;;;;;;;;;;;22.10;36.80;;;;;;5055723;28;19932;-59
2024/03/25 00:35:17;;;;;;;;;;;22.10;36.80;;;;;;5072421;28;19925;-60
2024/03/25 00:37:45;;;;;;;;;;;22.10;36.80;;;;;;5072501;28;19929;-60
2024/03/25 00:40:11;;;;;;;;;;;22.10;36.90;;;;;;5072612;28;19924;-60
2024/03/25 00:42:37;;;;;;;;;;;22.00;36.90;;;;;;5072237;28;19924;-60
2024/03/25 00:45:05;;;;;;;;;;;22.10;36.90;;;;;;5072615;28;20277;-60
2024/03/25 00:47:32;;;;;;;;;;;22.00;36.90;;;;;;5072209;28;19932;-60
2024/03/25 00:49:58;;;;;;;;;;;22.10;36.90;;;;;;5072396;28;19931;-60
2024/03/25 00:52:24;;;;;;;;;;;22.10;36.90;;;;;;5072289;28;19924;-60
2024/03/25 00:54:49;;;;;;;;;;;22.10;36.90;;;;;;5072088;28;19925;-60
2024/03/25 00:57:15;;;;;;;;;;;22.10;36.90;;;;;;5072239;28;19925;-59
2024/03/25 00:59:41;;;;;;;;;;;22.10;37.50;;;;;;5072197;28;19929;-60
2024/03/25 01:02:08;;;;;;;;;;;22.10;36.80;;;;;;5072321;28;19924;-60
2024/03/25 01:04:34;;;;;;;;;;;22.10;36.80;;;;;;5072085;28;19932;-60
2024/03/25 01:07:00;;;;;;;;;;;22.10;37.40;;;;;;5072212;28;19925;-60
2024/03/25 01:09:26;;;;;;;;;;;22.10;36.80;;;;;;5072285;28;20341;-60
2024/03/25 01:11:52;;;;;;;;;;;22.10;37.40;;;;;;5071889;28;19929;-60
2024/03/25 01:14:18;;;;;;;;;;;22.10;36.90;;;;;;5060110;28;19925;-60
2024/03/25 01:16:43;;;;;;;;;;;22.10;36.90;;;;;;5051816;28;19933;-60
2024/03/25 01:19:09;;;;;;;;;;;22.00;36.80;;;;;;5051927;28;19931;-60
2024/03/25 01:21:35;;;;;;;;;;;22.00;36.90;;;;;;5051946;28;20362;-60
2024/03/25 01:24:01;;;;;;;;;;;22.00;36.90;;;;;;5052226;28;19959;-60
2024/03/25 01:26:28;;;;;;;;;;;22.00;36.90;;;;;;5052000;28;19925;-60
2024/03/25 01:28:54;;;;;;;;;;;22.00;36.90;;;;;;5051707;28;19971;-60
2024/03/25 01:31:20;;;;;;;;;;;22.00;36.90;;;;;;5052017;28;19979;-59
2024/03/25 01:33:46;;;;;;;;;;;22.00;37.00;;;;;;5051836;28;20386;-60
2024/03/25 01:36:17;;;;;;;;;;;22.00;37.00;;;;;;5051947;28;19991;-59
2024/03/25 01:38:43;;;;;;;;;;;22.00;37.00;;;;;;5051573;28;19933;-59
2024/03/25 01:41:09;;;;;;;;;;;22.00;37.00;;;;;;5051762;28;20278;-59
2024/03/25 01:43:35;;;;;;;;;;;22.00;37.00;;;;;;5051666;28;19932;-59
2024/03/25 01:46:01;;;;;;;;;;;22.00;37.60;;;;;;5063562;28;19924;-60
2024/03/25 01:48:28;;;;;;;;;;;21.90;37.00;;;;;;5071780;28;20289;-60
2024/03/25 01:50:54;;;;;;;;;;;21.90;37.00;;;;;;5071983;28;19947;-59
2024/03/25 01:53:20;;;;;;;;;;;21.90;37.60;;;;;;5071682;28;19925;-60
2024/03/25 01:55:46;;;;;;;;;;;21.90;37.00;;;;;;5071887;28;19924;-59
2024/03/25 01:58:12;;;;;;;;;;;21.90;37.10;;;;;;5071880;28;19935;-60
2024/03/25 02:00:38;;;;;;;;;;;21.90;37.10;;;;;;5071624;28;20290;-60
2024/03/25 02:03:04;;;;;;;;;;;21.90;37.10;;;;;;5071310;28;20256;-60
2024/03/25 02:05:30;;;;;;;;;;;22.00;37.10;;;;;;5071651;28;19932;-60
2024/03/25 02:07:56;;;;;;;;;;;21.90;37.10;;;;;;5071404;28;19924;-60
2024/03/25 02:10:22;;;;;;;;;;;21.90;37.00;;;;;;5071329;28;19932;-59
2024/03/25 02:12:48;;;;;;;;;;;22.00;37.00;;;;;;5071546;28;19925;-59
2024/03/25 02:15:14;;;;;;;;;;;22.00;37.00;;;;;;5071181;28;19929;-61
2024/03/25 02:17:41;;;;;;;;;;;22.00;37.00;;;;;;5071779;28;19978;-60
2024/03/25 02:20:10;;;;;;;;;;;22.00;37.00;;;;;;5071490;28;19955;-60
2024/03/25 02:22:36;;;;;;;;;;;22.00;37.00;;;;;;5071509;28;19947;-60
2024/03/25 02:25:05;;;;;;;;;;;21.90;37.00;;;;;;5066363;28;20366;-60
2024/03/25 02:27:32;;;;;;;;;;;21.90;37.00;;;;;;5051658;28;19925;-60
2024/03/25 02:30:01;;;;;;;;;;;21.90;37.10;;;;;;5051568;28;19931;-60
2024/03/25 02:32:29;;;;;;;;;;;21.90;37.10;;;;;;5054538;28;19925;-60
2024/03/25 02:34:56;;;;;;;;;;;21.90;37.10;;;;;;5054562;28;19971;-62
2024/03/25 02:37:22;;;;;;;;;;;21.90;37.10;;;;;;5054737;28;19935;-60
2024/03/25 02:39:48;;;;;;;;;;;21.90;37.20;;;;;;5038407;28;19932;-59
2024/03/25 02:42:14;;;;;;;;;;;21.80;37.10;;;;;;5054499;28;19932;-60
2024/03/25 02:44:43;;;;;;;;;;;21.80;37.20;;;;;;5054634;28;19929;-59
2024/03/25 02:47:09;;;;;;;;;;;21.80;37.20;;;;;;5054418;28;19924;-60
2024/03/25 02:49:35;;;;;;;;;;;21.80;37.20;;;;;;5054783;28;20285;-59
2024/03/25 02:52:01;;;;;;;;;;;21.80;37.20;;;;;;5054219;28;20282;-60
2024/03/25 02:54:27;;;;;;;;;;;21.80;37.20;;;;;;5054359;28;20018;-60
2024/03/25 02:56:53;;;;;;;;;;;21.80;37.20;;;;;;5054565;28;19931;-60
2024/03/25 02:59:19;;;;;;;;;;;21.80;37.20;;;;;;5054329;28;19925;-60
2024/03/25 03:01:44;;;;;;;;;;;21.80;37.20;;;;;;5054565;28;19932;-60
2024/03/25 03:04:10;;;;;;;;;;;21.80;37.20;;;;;;5054238;28;19971;-59
2024/03/25 03:06:36;;;;;;;;;;;21.80;37.20;;;;;;5053279;28;19925;-59
2024/03/25 03:09:02;;;;;;;;;;;21.80;37.30;;;;;;5054079;28;19929;-60
2024/03/25 03:11:28;;;;;;;;;;;21.80;37.20;;;;;;5053965;28;19925;-60
2024/03/25 03:13:54;;;;;;;;;;;21.80;37.20;;;;;;5053875;28;19925;-59
2024/03/25 03:16:20;;;;;;;;;;;21.80;37.30;;;;;;5054095;28;19924;-59
2024/03/25 03:18:45;;;;;;;;;;;21.80;37.30;;;;;;5054231;28;19975;-60
2024/03/25 03:21:11;;;;;;;;;;;21.80;37.30;;;;;;5053710;28;19928;-60
2024/03/25 03:23:39;;;;;;;;;;;21.80;37.20;;;;;;5053147;28;20303;-60
2024/03/25 03:26:05;;;;;;;;;;;21.80;37.20;;;;;;5053789;28;19932;-60
2024/03/25 03:28:31;;;;;;;;;;;21.80;37.10;;;;;;5053968;28;19931;-60
2024/03/25 03:30:57;;;;;;;;;;;21.90;37.20;;;;;;5053817;28;19925;-60
2024/03/25 03:33:23;;;;;;;;;;;21.80;37.10;;;;;;5053461;28;20409;-60
2024/03/25 03:35:49;;;;;;;;;;;21.80;37.10;;;;;;5053964;28;19925;-60
2024/03/25 03:38:15;;;;;;;;;;;21.80;37.20;;;;;;5054012;28;19929;-60
2024/03/25 03:40:41;;;;;;;;;;;21.80;37.20;;;;;;5053369;28;20286;-59
2024/03/25 03:43:06;;;;;;;;;;;21.80;37.20;;;;;;5053670;28;20019;-60
2024/03/25 03:45:33;;;;;;;;;;;21.80;37.30;;;;;;5053704;28;20294;-60
2024/03/25 03:47:59;;;;;;;;;;;21.80;37.30;;;;;;5053491;28;19924;-60
2024/03/25 03:50:25;;;;;;;;;;;21.80;37.30;;;;;;5053480;28;20013;-60
2024/03/25 03:52:50;;;;;;;;;;;21.70;37.30;;;;;;5053636;28;20286;-60
2024/03/25 03:55:16;;;;;;;;;;;21.70;37.30;;;;;;5053081;28;20020;-61
2024/03/25 03:57:42;;;;;;;;;;;21.80;37.30;;;;;;5053415;28;20190;-60
2024/03/25 04:00:11;;;;;;;;;;;21.70;37.30;;;;;;5053415;28;19925;-61
2024/03/25 04:02:38;;;;;;;;;;;21.70;37.30;;;;;;5053333;28;20286;-60
2024/03/25 04:05:04;;;;;;;;;;;21.70;37.30;;;;;;5053484;28;19933;-60
2024/03/25 04:07:32;;;;;;;;;;;21.70;37.30;;;;;;5053048;28;19932;-61
2024/03/25 04:09:59;;;;;;;;;;;21.70;37.40;;;;;;5053101;28;19925;-60
2024/03/25 04:12:26;;;;;;;;;;;21.70;37.30;;;;;;5053237;28;19925;-60
2024/03/25 04:14:54;;;;;;;;;;;21.70;37.30;;;;;;5052874;28;19925;-60
2024/03/25 04:17:21;;;;;;;;;;;21.70;37.40;;;;;;5057987;28;19924;-62
2024/03/25 04:19:48;;;;;;;;;;;21.70;37.30;;;;;;5072700;28;19924;-62
2024/03/25 04:22:14;;;;;;;;;;;21.70;37.30;;;;;;5073004;28;19924;-60
2024/03/25 04:24:40;;;;;;;;;;;21.80;37.40;;;;;;5072792;28;20274;-63
2024/03/25 04:27:06;;;;;;;;;;;21.70;37.30;;;;;;5072797;28;19924;-64
2024/03/25 04:29:32;;;;;;;;;;;21.80;37.30;;;;;;5072596;28;20370;-64
2024/03/25 04:31:57;;;;;;;;;;;21.70;37.30;;;;;;5072340;28;19931;-61
2024/03/25 04:34:23;;;;;;;;;;;21.80;37.30;;;;;;5072411;28;19933;-60
2024/03/25 04:36:49;;;;;;;;;;;21.80;37.30;;;;;;5072709;28;19932;-60
2024/03/25 04:39:15;;;;;;;;;;;21.80;37.00;;;;;;5072739;28;19936;-61
2024/03/25 04:41:41;;;;;;;;;;;21.80;36.70;;;;;;5072675;28;20267;-60
2024/03/25 04:44:07;;;;;;;;;;;21.90;37.20;;;;;;5072204;28;19936;-59
2024/03/25 04:46:32;;;;;;;;;;;21.90;36.40;;;;;;5071927;28;19928;-60
2024/03/25 04:48:58;;;;;;;;;;;21.90;36.20;;;;;;5072608;28;19964;-61
2024/03/25 04:51:24;;;;;;;;;;;21.90;36.10;;;;;;5072342;28;20362;-60
2024/03/25 04:53:50;;;;;;;;;;;22.00;36.00;;;;;;5055240;28;20262;-61
2024/03/25 04:56:16;;;;;;;;;;;22.00;35.90;;;;;;5072073;28;19978;-61
2024/03/25 04:58:42;;;;;;;;;;;22.00;35.90;;;;;;5072088;28;19928;-60
2024/03/25 05:01:07;;;;;;;;;;;22.00;35.80;;;;;;5072022;28;19924;-60
2024/03/25 05:03:33;;;;;;;;;;;22.00;35.60;;;;;;5072342;28;20357;-60
2024/03/25 05:05:59;;;;;;;;;;;22.00;35.60;;;;;;5072375;28;19925;-60
2024/03/25 05:08:25;;;;;;;;;;;22.00;35.50;;;;;;5072316;28;20312;-60
2024/03/25 05:10:51;;;;;;;;;;;22.10;35.40;;;;;;5054889;28;20305;-60
2024/03/25 05:13:16;;;;;;;;;;;22.10;35.30;;;;;;5071709;28;20016;-60
2024/03/25 05:15:49;;;;;;;;;;;22.10;35.30;;;;;;5065714;28;19928;-60
2024/03/25 05:18:15;;;;;;;;;;;22.10;35.20;;;;;;5062669;28;19924;-60
2024/03/25 05:20:41;;;;;;;;;;;22.10;35.10;;;;;;5061850;28;19951;-60
2024/03/25 05:23:07;;;;;;;;;;;22.10;35.00;;;;;;5063056;28;19978;-61
2024/03/25 05:25:34;;;;;;;;;;;22.10;35.00;;;;;;5071633;28;19939;-60
2024/03/25 05:28:00;;;;;;;;;;;22.20;35.00;;;;;;5072094;28;19925;-60
2024/03/25 05:30:25;;;;;;;;;;;22.20;34.90;;;;;;5071753;28;20289;-60
2024/03/25 05:32:51;;;;;;;;;;;22.20;34.80;;;;;;5071381;28;20366;-60
2024/03/25 05:35:17;;;;;;;;;;;22.20;34.80;;;;;;5071431;28;19967;-60
2024/03/25 05:37:43;;;;;;;;;;;22.20;34.70;;;;;;5071909;28;20374;-60
2024/03/25 05:40:11;;;;;;;;;;;22.20;34.60;;;;;;5071857;28;19924;-60
2024/03/25 05:42:37;;;;;;;;;;;22.30;34.60;;;;;;5071851;28;19932;-60
2024/03/25 05:45:03;;;;;;;;;;;22.30;34.60;;;;;;5069712;28;19924;-60
2024/03/25 05:47:29;;;;;;;;;;;22.30;34.60;;;;;;5071297;28;19924;-60
2024/03/25 05:49:55;;;;;;;;;;;22.30;34.60;;;;;;5071164;28;20289;-60
2024/03/25 05:52:21;;;;;;;;;;;22.30;34.50;;;;;;5071168;28;19932;-60
2024/03/25 05:54:47;;;;;;;;;;;22.40;34.50;;;;;;5071210;28;20364;-60
2024/03/25 05:57:13;;;;;;;;;;;22.40;34.40;;;;;;5071147;28;20024;-60
2024/03/25 05:59:39;;;;;;;;;;;22.40;34.40;;;;;;5071390;28;19979;-60
2024/03/25 06:02:05;;;;;;;;;;;22.40;34.30;;;;;;5070616;28;19924;-60
2024/03/25 06:04:31;;;;;;;;;;;22.40;34.30;;;;;;5071680;28;20019;-60
2024/03/25 06:06:56;;;;;;;;;;;22.50;34.30;;;;;;5073761;28;20312;-60
2024/03/25 06:09:22;;;;;;;;;;;22.50;34.30;;;;;;5075290;28;19984;-61
2024/03/25 06:11:48;;;;;;;;;;;22.50;34.20;;;;;;5074799;28;19928;-61
2024/03/25 06:14:14;;;;;;;;;;;22.50;34.20;;;;;;5074952;28;19928;-60
2024/03/25 06:16:41;;;;;;;;;;;22.50;34.30;;;;;;5074920;28;19924;-60
2024/03/25 06:19:07;;;;;;;;;;;22.50;34.40;;;;;;5065405;28;19925;-60
2024/03/25 06:21:33;;;;;;;;;;;22.60;34.50;;;;;;5056977;28;19932;-60
2024/03/25 06:23:58;;;;;;;;;;;22.60;34.60;;;;;;5064612;28;20393;-60
2024/03/25 06:26:24;;;;;;;;;;;22.60;34.60;;;;;;5062818;28;19925;-60
2024/03/25 06:28:50;;;;;;;;;;;22.60;34.70;;;;;;5060088;28;19932;-60
2024/03/25 06:34:21;;;;;;;;;;;22.70;34.80;;;;;;5063807;28;20320;-61
2024/03/25 06:36:47;;;;;;;;;;;22.70;35.00;;;;;;5062021;28;20377;-62
2024/03/25 06:39:13;;;;;;;;;;;22.80;35.10;;;;;;5059742;28;19933;-63
2024/03/25 06:41:39;;;;;;;;;;;22.80;35.20;;;;;;5056556;28;19925;-63
2024/03/25 06:44:05;;;;;;;;;;;22.90;35.20;;;;;;5064316;28;19948;-62
2024/03/25 06:46:31;;;;;;;;;;;23.00;35.00;;;;;;5062150;28;20054;-62
2024/03/25 06:48:57;;;;;;;;;;;23.00;34.90;;;;;;5064403;28;19929;-60
2024/03/25 06:51:23;;;;;;;;;;;23.10;35.00;;;;;;5058760;28;20025;-61
2024/03/25 06:53:49;;;;;;;;;;;23.10;35.10;;;;;;5058625;28;19955;-61
2024/03/25 06:56:15;;;;;;;;;;;23.10;35.10;;;;;;5061499;28;20488;-61
2024/03/25 06:58:41;;;;;;;;;;;23.20;35.10;;;;;;5062460;28;20027;-61
2024/03/25 07:01:08;;;;;;;;;;;23.30;35.10;;;;;;5054986;28;19977;-62
2024/03/25 07:03:34;;;;;;;;;;;23.30;35.00;;;;;;5062380;28;20377;-61
2024/03/25 07:06:00;;;;;;;;;;;23.40;35.00;;;;;;5059303;28;19939;-61
2024/03/25 07:08:27;;;;;;;;;;;23.40;34.90;;;;;;5057181;28;19993;-61
2024/03/25 07:10:53;;;;;;;;;;;23.40;34.90;;;;;;5044800;28;19936;-61
2024/03/25 07:13:19;;;;;;;;;;;23.40;34.80;;;;;;5057734;28;19986;-61
2024/03/25 07:15:46;;;;;;;;;;;23.50;34.80;;;;;;5057799;28;20377;-63
2024/03/25 07:18:12;;;;;;;;;;;23.50;34.70;;;;;;5058997;28;20279;-61
2024/03/25 07:20:39;;;;;;;;;;;23.50;34.60;;;;;;5059981;28;20506;-60
2024/03/25 07:23:05;;;;;;;;;;;23.50;34.60;;;;;;5055282;28;19940;-61
2024/03/25 07:25:31;;;;;;;;;;;23.60;34.40;;;;;;5056262;28;19978;-63
2024/03/25 07:27:57;;;;;;;;;;;23.60;34.20;;;;;;5060898;28;19936;-62
2024/03/25 07:30:27;;;;;;;;;;;23.60;34.20;;;;;;5058177;28;20457;-62
2024/03/25 07:32:57;;;;;;;;;;;23.70;34.10;;;;;;5040200;28;19932;-60
2024/03/25 07:35:23;;;;;;;;;;;23.70;33.90;;;;;;5023872;28;19933;-61
2024/03/25 07:37:51;;;;;;;;;;;23.80;33.80;;;;;;5072125;28;20019;-61
2024/03/25 07:40:18;;;;;;;;;;;23.80;33.70;;;;;;5038859;28;19933;-61
2024/03/25 07:42:44;;;;;;;;;;;23.90;33.60;;;;;;5055822;28;19990;-61
2024/03/25 07:45:09;;;;;;;;;;;23.90;33.40;;;;;;5036321;28;20267;-61
2024/03/25 07:47:36;;;;;;;;;;;24.00;33.40;;;;;;5058696;28;19932;-61
2024/03/25 07:50:02;;;;;;;;;;;24.10;33.40;;;;;;5052878;28;21396;-61
2024/03/25 07:52:28;;;;;;;;;;;24.10;33.30;;;;;;5055197;28;19937;-60
2024/03/25 07:54:54;;;;;;;;;;;24.10;33.30;;;;;;5052269;28;19963;-62
2024/03/25 07:57:20;;;;;;;;;;;24.10;33.30;;;;;;5056071;28;19970;-61
2024/03/25 07:59:46;;;;;;;;;;;24.20;33.50;;;;;;5052744;28;19935;-63
2024/03/25 08:02:12;;;;;;;;;;;24.20;33.50;;;;;;5035418;28;19972;-61
2024/03/25 08:04:38;;;;;;;;;;;24.20;33.60;;;;;;5056029;28;19933;-60
2024/03/25 08:07:04;;;;;;;;;;;24.20;33.60;;;;;;5058842;28;19928;-61
2024/03/25 08:09:30;;;;;;;;;;;24.30;33.70;;;;;;5054665;28;20374;-60
2024/03/25 08:11:56;;;;;;;;;;;24.30;33.70;;;;;;5061044;28;19924;-60
2024/03/25 08:14:22;;;;;;;;;;;24.30;33.50;;;;;;5056453;28;20020;-59
2024/03/25 08:16:49;;;;;;;;;;;24.30;33.40;;;;;;5056762;28;19985;-60
2024/03/25 08:19:15;;;;;;;;;;;24.30;33.30;;;;;;5052576;28;19932;-61
2024/03/25 08:21:40;;;;;;;;;;;24.30;33.40;;;;;;5065691;28;20327;-60
2024/03/25 08:24:06;;;;;;;;;;;24.30;33.40;;;;;;5059591;28;20380;-64
2024/03/25 08:26:32;;;;;;;;;;;24.30;33.40;;;;;;5061025;28;19971;-65
2024/03/25 08:28:59;;;;;;;;;;;24.30;33.50;;;;;;5054180;28;19959;-62
2024/03/25 08:31:24;;;;;;;;;;;24.40;33.50;;;;;;5052760;28;19928;-62
2024/03/25 08:33:50;;;;;;;;;;;24.40;33.60;;;;;;5058309;28;19931;-62
2024/03/25 08:36:18;;;;;;;;;;;24.40;33.60;;;;;;5042289;28;19928;-63
2024/03/25 08:38:44;;;;;;;;;;;24.40;33.60;;;;;;5057077;28;19925;-63
2024/03/25 08:41:10;;;;;;;;;;;24.50;33.70;;;;;;5052925;28;19928;-63
2024/03/25 08:43:36;;;;;;;;;;;24.50;33.60;;;;;;5057001;28;20396;-62
2024/03/25 08:46:03;;;;;;;;;;;24.50;33.50;;;;;;5060751;28;19932;-63
2024/03/25 08:48:29;;;;;;;;;;;24.50;33.30;;;;;;5060805;28;19943;-62
2024/03/25 08:50:55;;;;;;;;;;;24.50;33.30;;;;;;5058105;28;20400;-63
2024/03/25 08:53:22;;;;;;;;;;;24.50;33.30;;;;;;5058479;28;19932;-62
2024/03/25 08:55:48;;;;;;;;;;;24.50;33.40;;;;;;5057757;28;19932;-62
2024/03/25 08:58:15;;;;;;;;;;;24.50;33.30;;;;;;5057681;28;19932;-62
2024/03/25 09:00:41;;;;;;;;;;;24.50;33.40;;;;;;5056640;28;19924;-62
2024/03/25 09:03:08;;;;;;;;;;;24.60;33.40;;;;;;5056155;28;19928;-63
2024/03/25 09:05:34;;;;;;;;;;;24.60;33.30;;;;;;5058715;28;19925;-61
2024/03/25 09:08:00;;;;;;;;;;;24.60;33.30;;;;;;5060503;28;19931;-63
2024/03/25 09:13:12;;;;;;;;;;;24.70;33.40;;;;;;5056909;28;19931;-63
2024/03/25 09:15:39;;;;;;;;;;;24.70;33.80;;;;;;5061554;28;19932;-63
2024/03/25 09:18:05;;;;;;;;;;;24.70;33.60;;;;;;5063882;28;20266;-63
2024/03/25 09:20:30;;;;;;;;;;;24.70;33.70;;;;;;5041001;28;20393;-64
2024/03/25 09:22:56;;;;;;;;;;;24.70;33.60;;;;;;5056088;28;20019;-63
2024/03/25 09:25:23;;;;;;;;;;;24.80;33.50;;;;;;5057893;28;20094;-65
2024/03/25 09:27:50;;;;;;;;;;;24.80;33.20;;;;;;5063818;28;20423;-64
2024/03/25 09:30:16;;;;;;;;;;;24.80;33.00;;;;;;5057772;28;19932;-64
2024/03/25 09:32:42;;;;;;;;;;;24.80;32.90;;;;;;5057921;28;20297;-65
2024/03/25 09:35:09;;;;;;;;;;;24.80;32.80;;;;;;5059615;28;19932;-64
2024/03/25 09:37:35;;;;;;;;;;;24.80;32.80;;;;;;5058435;28;19924;-63
2024/03/25 09:40:01;;;;;;;;;;;24.80;32.70;;;;;;5063101;28;19925;-64
2024/03/25 09:42:27;;;;;;;;;;;24.90;32.60;;;;;;5064257;28;19985;-66
2024/03/25 09:44:54;;;;;;;;;;;24.80;32.20;;;;;;5042452;28;19986;-63
2024/03/25 09:47:20;;;;;;;;;;;24.90;32.10;;;;;;5059544;28;19924;-63
2024/03/25 09:49:47;;;;;;;;;;;24.90;32.00;;;;;;5054452;28;19932;-63
2024/03/25 09:52:13;;;;;;;;;;;24.80;31.90;;;;;;5058839;28;19924;-63
2024/03/25 09:54:38;;;;;;;;;;;24.80;31.80;;;;;;5056258;28;19939;-63
2024/03/25 09:57:04;;;;;;;;;;;24.90;31.70;;;;;;5060896;28;20632;-64
2024/03/25 09:59:30;;;;;;;;;;;24.90;31.40;;;;;;5063439;28;19974;-64
2024/03/25 10:01:57;;;;;;;;;;;24.90;31.40;;;;;;5062180;28;19932;-63
2024/03/25 10:04:23;;;;;;;;;;;24.90;31.40;;;;;;5061254;28;19936;-64
2024/03/25 10:06:49;;;;;;;;;;;24.90;31.50;;;;;;5060892;28;19924;-62
2024/03/25 10:09:19;;;;;;;;;;;24.90;31.50;;;;;;5062963;28;19935;-62
2024/03/25 10:11:46;;;;;;;;;;;24.90;31.50;;;;;;5066589;28;19932;-62
2024/03/25 10:14:12;;;;;;;;;;;24.90;31.10;;;;;;5057505;28;19924;-62
2024/03/25 10:16:38;;;;;;;;;;;25.00;31.10;;;;;;5059502;28;20016;-62
2024/03/25 10:19:04;;;;;;;;;;;25.00;31.20;;;;;;5057341;28;19924;-62
2024/03/25 10:21:31;;;;;;;;;;;25.10;31.20;;;;;;5057486;28;19940;-64
2024/03/25 10:23:57;;;;;;;;;;;25.10;31.00;;;;;;5060238;28;20400;-65
2024/03/25 10:26:26;;;;;;;;;;;25.10;30.80;;;;;;5060727;28;19928;-66
2024/03/25 10:28:59;;;;;;;;;;;25.20;30.60;;;;;;5057079;28;19932;-66
2024/03/25 10:31:24;;;;;;;;;;;25.10;30.30;;;;;;5059807;28;19933;-66
2024/03/25 10:33:50;;;;;;;;;;;25.20;30.00;;;;;;5062206;28;19924;-63
2024/03/25 10:36:20;;;;;;;;;;;25.20;29.30;;;;;;5061106;28;19933;-64
2024/03/25 10:38:48;;;;;;;;;;;25.20;29.30;;;;;;5061379;28;19924;-61
2024/03/25 10:41:16;;;;;;;;;;;25.30;29.70;;;;;;5059882;28;20414;-64
2024/03/25 10:43:43;;;;;;;;;;;25.30;29.80;;;;;;5061583;28;19975;-63
2024/03/25 10:46:10;;;;;;;;;;;25.30;29.90;;;;;;5055674;28;20021;-63
2024/03/25 10:48:37;;;;;;;;;;;25.40;30.00;;;;;;5058641;28;19939;-62
2024/03/25 10:51:06;;;;;;;;;;;25.40;29.90;;;;;;5059295;28;20653;-62
2024/03/25 10:53:35;;;;;;;;;;;25.40;29.80;;;;;;5062937;28;19924;-63
2024/03/25 10:56:01;;;;;;;;;;;25.40;29.80;;;;;;5062294;28;19926;-63
2024/03/25 10:58:31;;;;;;;;;;;25.40;29.80;;;;;;5059428;28;20389;-65
2024/03/25 11:00:57;;;;;;;;;;;25.40;29.90;;;;;;5061956;28;19925;-63
2024/03/25 11:03:23;;;;;;;;;;;25.40;29.80;;;;;;5065784;28;20011;-64
2024/03/25 11:05:49;;;;;;;;;;;25.40;29.80;;;;;;5058372;28;19932;-62
2024/03/25 11:08:16;;;;;;;;;;;25.40;29.90;;;;;;5059101;28;19928;-62
2024/03/25 11:10:43;;;;;;;;;;;25.40;29.90;;;;;;5064860;28;19928;-63
2024/03/25 11:13:13;;;;;;;;;;;25.40;29.70;;;;;;5060463;28;19928;-61
2024/03/25 11:15:46;;;;;;;;;;;25.40;29.80;;;;;;5059558;28;19932;-63
2024/03/25 11:18:12;;;;;;;;;;;25.50;29.90;;;;;;5058994;28;19933;-63
2024/03/25 11:20:38;;;;;;;;;;;25.50;29.70;;;;;;5059460;28;21454;-63
2024/03/25 11:23:11;;;;;;;;;;;25.50;29.50;;;;;;5060557;28;19932;-63
2024/03/25 11:25:38;;;;;;;;;;;25.50;29.50;;;;;;5062985;28;19939;-61
2024/03/25 11:28:04;;;;;;;;;;;25.60;29.60;;;;;;5064760;28;19928;-61
2024/03/25 11:30:31;;;;;;;;;;;25.60;29.50;;;;;;5063901;28;19924;-62
2024/03/25 11:32:57;;;;;;;;;;;25.50;29.00;;;;;;5062028;28;19940;-62
2024/03/25 11:35:23;;;;;;;;;;;25.60;29.10;;;;;;5060685;28;19955;-62
2024/03/25 11:37:51;;;;;;;;;;;25.60;29.10;;;;;;5067080;28;20301;-63
2024/03/25 11:40:17;;;;;;;;;;;25.60;29.10;;;;;;5061560;28;19954;-62
2024/03/25 11:42:43;;;;;;;;;;;25.60;29.00;;;;;;5059809;28;20575;-62
2024/03/25 11:45:23;;;;;;;;;;;25.60;28.80;;;;;;5042393;28;19936;-62
2024/03/25 11:47:49;;;;;;;;;;;25.70;28.60;;;;;;5059287;28;19940;-63
2024/03/25 11:50:15;;;;;;;;;;;25.70;28.40;;;;;;5062280;28;19978;-65
2024/03/25 11:52:42;;;;;;;;;;;25.70;28.40;;;;;;5060119;28;19950;-66
2024/03/25 11:55:08;;;;;;;;;;;25.70;28.10;;;;;;5059383;28;19924;-66
2024/03/25 11:57:37;;;;;;;;;;;25.70;27.80;;;;;;5056510;28;19933;-63
2024/03/25 12:00:05;;;;;;;;;;;25.70;27.60;;;;;;5055391;28;19936;-63
2024/03/25 12:02:31;;;;;;;;;;;25.70;27.50;;;;;;5061065;28;19924;-64
2024/03/25 12:04:57;;;;;;;;;;;25.70;27.50;;;;;;5055821;28;19986;-64
2024/03/25 12:07:23;;;;;;;;;;;25.70;27.50;;;;;;5062950;28;19933;-67
2024/03/25 12:12:35;;;;;;;;;;;25.70;27.30;;;;;;5048161;28;19924;-63
2024/03/25 12:15:02;;;;;;;;;;;25.80;27.30;;;;;;5060245;28;19950;-63
2024/03/25 12:17:29;;;;;;;;;;;25.80;27.20;;;;;;5055374;28;19928;-64
2024/03/25 12:20:03;;;;;;;;;;;25.90;27.30;;;;;;5058977;28;19936;-65
2024/03/25 12:22:33;;;;;;;;;;;25.90;27.40;;;;;;5047427;28;20377;-64
2024/03/25 12:25:04;;;;;;;;;;;25.90;27.30;;;;;;5061798;28;19954;-63
2024/03/25 12:27:29;;;;;;;;;;;26.00;27.20;;;;;;5057678;28;19932;-64
2024/03/25 12:29:59;;;;;;;;;;;26.00;27.30;;;;;;5061773;28;19932;-64
2024/03/25 12:32:35;;;;;;;;;;;26.10;27.30;;;;;;5056389;28;19940;-62
2024/03/25 12:35:02;;;;;;;;;;;26.10;27.40;;;;;;5055266;28;20291;-62
2024/03/25 12:37:27;;;;;;;;;;;26.10;27.30;;;;;;5051498;28;20391;-63
2024/03/25 12:39:53;;;;;;;;;;;26.20;27.30;;;;;;5037733;28;20304;-66
2024/03/25 12:42:20;;;;;;;;;;;26.20;27.30;;;;;;5057426;28;19962;-62
2024/03/25 12:44:46;;;;;;;;;;;26.30;27.20;;;;;;5057007;28;19933;-63
2024/03/25 12:47:12;;;;;;;;;;;26.20;27.30;;;;;;5061979;28;19982;-63
2024/03/25 12:49:38;;;;;;;;;;;26.20;27.20;;;;;;5058949;28;19934;-63
2024/03/25 12:52:07;;;;;;;;;;;26.20;27.00;;;;;;5057784;28;19989;-62
2024/03/25 12:54:33;;;;;;;;;;;26.20;27.20;;;;;;5056624;28;20389;-63
2024/03/25 12:56:59;;;;;;;;;;;26.20;27.10;;;;;;5055340;28;19928;-62
2024/03/25 12:59:25;;;;;;;;;;;26.10;27.20;;;;;;5053159;28;19928;-62
2024/03/25 13:01:51;;;;;;;;;;;26.10;27.30;;;;;;5054265;28;20398;-62
2024/03/25 13:04:17;;;;;;;;;;;26.10;27.30;;;;;;5052919;28;19986;-62
2024/03/25 13:06:43;;;;;;;;;;;26.10;27.40;;;;;;5051967;28;19933;-63
2024/03/25 13:09:09;;;;;;;;;;;26.10;27.50;;;;;;5055531;28;20328;-63
2024/03/25 13:11:35;;;;;;;;;;;26.10;27.60;;;;;;5054310;28;20350;-61
2024/03/25 13:14:02;;;;;;;;;;;26.10;27.60;;;;;;5058155;28;19935;-61
2024/03/25 13:16:28;;;;;;;;;;;26.00;27.60;;;;;;5051918;28;19940;-61
2024/03/25 13:18:54;;;;;;;;;;;26.00;27.50;;;;;;5056061;28;19925;-62
2024/03/25 13:21:20;;;;;;;;;;;26.00;27.50;;;;;;5051888;28;19924;-62
2024/03/25 13:23:46;;;;;;;;;;;25.90;27.70;;;;;;5036665;28;20400;-60
2024/03/25 13:26:11;;;;;;;;;;;25.90;27.60;;;;;;5056908;28;19947;-62
2024/03/25 13:28:37;;;;;;;;;;;25.90;27.60;;;;;;5059784;28;19933;-63
2024/03/25 13:31:04;;;;;;;;;;;25.90;27.60;;;;;;5058393;28;19924;-63
2024/03/25 13:33:30;;;;;;;;;;;25.90;27.70;;;;;;5057598;28;20027;-63
2024/03/25 13:35:56;;;;;;;;;;;26.00;27.70;;;;;;5057878;28;19955;-63
2024/03/25 13:38:22;;;;;;;;;;;26.00;27.70;;;;;;5055283;28;19936;-63
2024/03/25 13:40:48;;;;;;;;;;;26.00;27.60;;;;;;5055716;28;20389;-64
2024/03/25 13:43:14;;;;;;;;;;;26.00;27.70;;;;;;5056518;28;19933;-61
2024/03/25 13:45:46;;;;;;;;;;;26.00;27.70;;;;;;5058530;28;19981;-61
2024/03/25 13:48:12;;;;;;;;;;;26.00;27.40;;;;;;5060738;28;20189;-61
2024/03/25 13:50:38;;;;;;;;;;;26.00;27.20;;;;;;5054787;28;20382;-61
2024/03/25 13:53:05;;;;;;;;;;;26.00;27.10;;;;;;5053272;28;19929;-60
2024/03/25 13:55:30;;;;;;;;;;;26.00;27.10;;;;;;5042262;28;19931;-60
2024/03/25 13:57:57;;;;;;;;;;;26.00;27.20;;;;;;5063015;28;19924;-60
2024/03/25 14:00:23;;;;;;;;;;;25.90;27.00;;;;;;5042621;28;19932;-60
2024/03/25 14:02:49;;;;;;;;;;;25.90;26.90;;;;;;5060763;28;19990;-60
2024/03/25 14:05:15;;;;;;;;;;;25.90;27.00;;;;;;5052338;28;19928;-60
2024/03/25 14:07:42;;;;;;;;;;;25.90;26.80;;;;;;5059652;28;19943;-56
2024/03/25 14:10:11;;;;;;;;;;;25.80;26.90;;;;;;5054808;28;19929;-59
2024/03/25 14:12:37;;;;;;;;;;;25.80;27.10;;;;;;5055664;28;19925;-60
2024/03/25 14:15:03;;;;;;;;;;;25.80;27.10;;;;;;5060402;28;19925;-60
2024/03/25 14:17:29;;;;;;;;;;;25.80;27.00;;;;;;5057111;28;19929;-61
2024/03/25 14:19:56;;;;;;;;;;;25.80;27.00;;;;;;5057921;28;19924;-59